Time;durP1;ratioP1;P1;durP2;ratioP2;P2;SDS_P1;SDS_P2;PMS_P1;PMS_P2;Temp;Humidity;BMP_temperature;BMP_pressure;BME280_temperature;BME280_humidity;BME280_pressure;Samples;Min_cycle;Max_cycle;Signal;HPM_P1;HPM_P2
2024/03/17 00:00:10;;;;;;;;;;;;;;;;;;4983545;28;19980;-64
2024/03/17 00:02:37;;;;;;;;;;;;;;;;;;4973196;28;19910;-64
2024/03/17 00:05:03;;;;;;;;;;;;;;;;;;4989934;28;19964;-64
2024/03/17 00:07:29;;;;;;;;;;;;;;;;;;4978345;28;19960;-64
2024/03/17 00:09:55;;;;;;;;;;;;;;;;;;4989415;28;19909;-64
2024/03/17 00:12:21;;;;;;;;;;;;;;;;;;4984316;28;20076;-64
2024/03/17 00:14:47;;;;;;;;;;;;;;;;;;4984577;28;19914;-64
2024/03/17 00:17:15;;;;;;;;;;;;;;;;;;4976686;28;20269;-64
2024/03/17 00:19:41;;;;;;;;;;;;;;;;;;4982074;28;19910;-64
2024/03/17 00:22:08;;;;;;;;;;;;;;;;;;4973131;28;19910;-64
2024/03/17 00:24:34;;;;;;;;;;;;;;;;;;4981267;28;19971;-64
2024/03/17 00:27:01;;;;;;;;;;;;;;;;;;4972722;28;19920;-64
2024/03/17 00:29:28;;;;;;;;;;;;;;;;;;4974138;28;19917;-64
2024/03/17 00:31:54;;;;;;;;;;;;;;;;;;4986159;28;19917;-64
2024/03/17 00:34:20;;;;;;;;;;;;;;;;;;4990547;28;19996;-64
2024/03/17 00:36:46;;;;;;;;;;;;;;;;;;4990571;28;19914;-64
2024/03/17 00:39:12;;;;;;;;;;;;;;;;;;4989288;28;19996;-64
2024/03/17 00:41:38;;;;;;;;;;;;;;;;;;4983477;28;20411;-64
2024/03/17 00:44:06;;;;;;;;;;;;;;;;;;4988759;28;19976;-64
2024/03/17 00:46:32;;;;;;;;;;;;;;;;;;4986139;28;19917;-64
2024/03/17 00:49:00;;;;;;;;;;;;;;;;;;4980837;28;19910;-64
2024/03/17 00:51:26;;;;;;;;;;;;;;;;;;4992693;28;20483;-64
2024/03/17 00:53:52;;;;;;;;;;;;;;;;;;4976981;28;19997;-64
2024/03/17 00:56:18;;;;;;;;;;;;;;;;;;4976237;28;19916;-64
2024/03/17 00:58:45;;;;;;;;;;;;;;;;;;4987578;28;19928;-64
2024/03/17 01:01:11;;;;;;;;;;;;;;;;;;4990486;28;20008;-64
2024/03/17 01:03:37;;;;;;;;;;;;;;;;;;4979960;28;19992;-64
2024/03/17 01:06:04;;;;;;;;;;;;;;;;;;4994022;28;19917;-64
2024/03/17 01:08:30;;;;;;;;;;;;;;;;;;4988257;28;19921;-64
2024/03/17 01:10:58;;;;;;;;;;;;;;;;;;4991141;28;19980;-64
2024/03/17 01:13:24;;;;;;;;;;;;;;;;;;4986518;28;19917;-64
2024/03/17 01:15:50;;;;;;;;;;;;;;;;;;4984552;28;19910;-64
2024/03/17 01:18:16;;;;;;;;;;;;;;;;;;4984144;28;20136;-64
2024/03/17 01:20:42;;;;;;;;;;;;;;;;;;4995311;28;20044;-64
2024/03/17 01:23:08;;;;;;;;;;;;;;;;;;4976479;28;19917;-64
2024/03/17 01:25:37;;;;;;;;;;;;;;;;;;4999545;28;19910;-63
2024/03/17 01:28:04;;;;;;;;;;;;;;;;;;4981533;28;19968;-64
2024/03/17 01:30:30;;;;;;;;;;;;;;;;;;4990329;28;19910;-64
2024/03/17 01:32:56;;;;;;;;;;;;;;;;;;4984870;28;19910;-64
2024/03/17 01:35:22;;;;;;;;;;;;;;;;;;4983683;28;19920;-64
2024/03/17 01:37:49;;;;;;;;;;;;;;;;;;4993163;28;20396;-64
2024/03/17 01:40:15;;;;;;;;;;;;;;;;;;4985035;28;19921;-64
2024/03/17 01:42:41;;;;;;;;;;;;;;;;;;4975711;28;20285;-64
2024/03/17 01:45:07;;;;;;;;;;;;;;;;;;4987815;28;19914;-64
2024/03/17 01:47:33;;;;;;;;;;;;;;;;;;4978230;28;19914;-64
2024/03/17 01:49:59;;;;;;;;;;;;;;;;;;4994767;28;19992;-64
2024/03/17 01:52:25;;;;;;;;;;;;;;;;;;4993358;28;19910;-64
2024/03/17 01:54:51;;;;;;;;;;;;;;;;;;4994615;28;19909;-64
2024/03/17 01:57:17;;;;;;;;;;;;;;;;;;4993605;28;19909;-64
2024/03/17 01:59:43;;;;;;;;;;;;;;;;;;4976208;28;19910;-64
2024/03/17 02:02:10;;;;;;;;;;;;;;;;;;4976414;28;19997;-64
2024/03/17 02:04:36;;;;;;;;;;;;;;;;;;4991275;28;19961;-64
2024/03/17 02:07:02;;;;;;;;;;;;;;;;;;4976151;28;20012;-64
2024/03/17 02:09:28;;;;;;;;;;;;;;;;;;5005906;28;21375;-64
2024/03/17 02:11:54;;;;;;;;;;;;;;;;;;4979108;28;19914;-64
2024/03/17 02:14:21;;;;;;;;;;;;;;;;;;4975038;28;19910;-64
2024/03/17 02:16:47;;;;;;;;;;;;;;;;;;4986608;28;19913;-64
2024/03/17 02:19:13;;;;;;;;;;;;;;;;;;4992923;28;19909;-64
2024/03/17 02:21:39;;;;;;;;;;;;;;;;;;4985417;28;19910;-64
2024/03/17 02:24:06;;;;;;;;;;;;;;;;;;4990911;28;19916;-64
2024/03/17 02:26:32;;;;;;;;;;;;;;;;;;4990954;28;19914;-64
2024/03/17 02:28:58;;;;;;;;;;;;;;;;;;4974858;28;20285;-64
2024/03/17 02:31:24;;;;;;;;;;;;;;;;;;4989748;28;19910;-64
2024/03/17 02:33:50;;;;;;;;;;;;;;;;;;4974799;28;19910;-64
2024/03/17 02:36:17;;;;;;;;;;;;;;;;;;4974356;28;20288;-64
2024/03/17 02:41:31;;;;;;;;;;;;;;;;;;4994008;28;19945;-64
2024/03/17 02:43:57;;;;;;;;;;;;;;;;;;4992849;28;19906;-64
2024/03/17 02:46:23;;;;;;;;;;;;;;;;;;4993820;28;19910;-64
2024/03/17 02:48:49;;;;;;;;;;;;;;;;;;4993813;28;19913;-64
2024/03/17 02:51:15;;;;;;;;;;;;;;;;;;4993843;28;19913;-64
2024/03/17 02:53:42;;;;;;;;;;;;;;;;;;4993648;28;20491;-64
2024/03/17 02:56:08;;;;;;;;;;;;;;;;;;4993582;28;19937;-64
2024/03/17 02:58:34;;;;;;;;;;;;;;;;;;4993700;28;20430;-64
2024/03/17 03:01:00;;;;;;;;;;;;;;;;;;4993708;28;19910;-64
2024/03/17 03:03:26;;;;;;;;;;;;;;;;;;4993544;28;19906;-64
2024/03/17 03:05:52;;;;;;;;;;;;;;;;;;4993490;28;19909;-64
2024/03/17 03:08:18;;;;;;;;;;;;;;;;;;4993444;28;19917;-64
2024/03/17 03:10:45;;;;;;;;;;;;;;;;;;4993392;28;20001;-64
2024/03/17 03:13:11;;;;;;;;;;;;;;;;;;4991061;28;19909;-64
2024/03/17 03:15:37;;;;;;;;;;;;;;;;;;4985174;28;20395;-64
2024/03/17 03:18:03;;;;;;;;;;;;;;;;;;4988699;28;19975;-64
2024/03/17 03:20:29;;;;;;;;;;;;;;;;;;4988930;28;20354;-64
2024/03/17 03:22:56;;;;;;;;;;;;;;;;;;4973769;28;19984;-64
2024/03/17 03:25:22;;;;;;;;;;;;;;;;;;4985978;28;19914;-64
2024/03/17 03:27:48;;;;;;;;;;;;;;;;;;4992809;28;19914;-64
2024/03/17 03:30:15;;;;;;;;;;;;;;;;;;4981977;28;19910;-64
2024/03/17 03:32:42;;;;;;;;;;;;;;;;;;4990786;28;20384;-64
2024/03/17 03:35:09;;;;;;;;;;;;;;;;;;4988753;28;19910;-64
2024/03/17 03:37:35;;;;;;;;;;;;;;;;;;4980640;28;19976;-64
2024/03/17 03:40:08;;;;;;;;;;;;;;;;;;4992914;28;19914;-64
2024/03/17 03:42:34;;;;;;;;;;;;;;;;;;4993068;28;19968;-64
2024/03/17 03:45:00;;;;;;;;;;;;;;;;;;4992896;28;19925;-64
2024/03/17 03:47:26;;;;;;;;;;;;;;;;;;4992669;28;19914;-64
2024/03/17 03:49:52;;;;;;;;;;;;;;;;;;4992837;28;19940;-64
2024/03/17 03:52:18;;;;;;;;;;;;;;;;;;4992762;28;19910;-64
2024/03/17 03:54:44;;;;;;;;;;;;;;;;;;4980600;28;19936;-64
2024/03/17 03:57:10;;;;;;;;;;;;;;;;;;4978402;28;19910;-64
2024/03/17 03:59:36;;;;;;;;;;;;;;;;;;5000126;28;19910;-64
2024/03/17 04:02:03;;;;;;;;;;;;;;;;;;4973371;28;19914;-64
2024/03/17 04:04:29;;;;;;;;;;;;;;;;;;4980966;28;19906;-64
2024/03/17 04:06:55;;;;;;;;;;;;;;;;;;4992331;28;19914;-64
2024/03/17 04:09:21;;;;;;;;;;;;;;;;;;4992714;28;19917;-64
2024/03/17 04:11:49;;;;;;;;;;;;;;;;;;4992695;28;19913;-64
2024/03/17 04:14:15;;;;;;;;;;;;;;;;;;4992635;28;19910;-64
2024/03/17 04:16:41;;;;;;;;;;;;;;;;;;4984372;28;19910;-64
2024/03/17 04:19:08;;;;;;;;;;;;;;;;;;4973125;28;19906;-64
2024/03/17 04:21:34;;;;;;;;;;;;;;;;;;4976669;28;19910;-64
2024/03/17 04:24:00;;;;;;;;;;;;;;;;;;4977135;28;19906;-64
2024/03/17 04:26:26;;;;;;;;;;;;;;;;;;4976875;28;19916;-64
2024/03/17 04:28:52;;;;;;;;;;;;;;;;;;4991766;28;19949;-64
2024/03/17 04:31:19;;;;;;;;;;;;;;;;;;4976969;28;20359;-64
2024/03/17 04:33:46;;;;;;;;;;;;;;;;;;4976830;28;20325;-64
2024/03/17 04:36:13;;;;;;;;;;;;;;;;;;4991527;28;20053;-63
2024/03/17 04:38:39;;;;;;;;;;;;;;;;;;4976979;28;19917;-64
2024/03/17 04:41:07;;;;;;;;;;;;;;;;;;4976798;28;19910;-64
2024/03/17 04:43:33;;;;;;;;;;;;;;;;;;4975514;28;19992;-64
2024/03/17 04:46:00;;;;;;;;;;;;;;;;;;4976570;28;19997;-64
2024/03/17 04:48:27;;;;;;;;;;;;;;;;;;4976538;28;19910;-64
2024/03/17 04:50:53;;;;;;;;;;;;;;;;;;4976326;28;19910;-64
2024/03/17 04:53:20;;;;;;;;;;;;;;;;;;4985344;28;19905;-62
2024/03/17 04:55:46;;;;;;;;;;;;;;;;;;4995758;28;19941;-62
2024/03/17 04:58:12;;;;;;;;;;;;;;;;;;4995943;28;19914;-62
2024/03/17 05:00:38;;;;;;;;;;;;;;;;;;4995059;28;19909;-62
2024/03/17 05:03:04;;;;;;;;;;;;;;;;;;4993577;28;20439;-62
2024/03/17 05:05:30;;;;;;;;;;;;;;;;;;4991074;28;19964;-62
2024/03/17 05:07:56;;;;;;;;;;;;;;;;;;4982599;28;19953;-62
2024/03/17 05:10:22;;;;;;;;;;;;;;;;;;4976615;28;20332;-62
2024/03/17 05:12:48;;;;;;;;;;;;;;;;;;4984725;28;19963;-62
2024/03/17 05:15:14;;;;;;;;;;;;;;;;;;4978343;28;20435;-62
2024/03/17 05:17:40;;;;;;;;;;;;;;;;;;4979991;28;19913;-62
2024/03/17 05:20:08;;;;;;;;;;;;;;;;;;4995563;28;20450;-62
2024/03/17 05:22:34;;;;;;;;;;;;;;;;;;4995582;28;20360;-62
2024/03/17 05:25:00;;;;;;;;;;;;;;;;;;4995525;28;19906;-62
2024/03/17 05:27:26;;;;;;;;;;;;;;;;;;4995156;28;19913;-62
2024/03/17 05:29:52;;;;;;;;;;;;;;;;;;4991307;28;19910;-62
2024/03/17 05:32:18;;;;;;;;;;;;;;;;;;4974711;28;19914;-62
2024/03/17 05:34:45;;;;;;;;;;;;;;;;;;4975874;28;20403;-62
2024/03/17 05:37:11;;;;;;;;;;;;;;;;;;4974921;28;19914;-62
2024/03/17 05:39:37;;;;;;;;;;;;;;;;;;4975704;28;19945;-62
2024/03/17 05:42:03;;;;;;;;;;;;;;;;;;4975980;28;19914;-62
2024/03/17 05:44:33;;;;;;;;;;;;;;;;;;4975579;28;19913;-61
2024/03/17 05:46:59;;;;;;;;;;;;;;;;;;4975569;28;19921;-62
2024/03/17 05:49:25;;;;;;;;;;;;;;;;;;4975668;28;19913;-61
2024/03/17 05:51:51;;;;;;;;;;;;;;;;;;4975626;28;19941;-62
2024/03/17 05:54:17;;;;;;;;;;;;;;;;;;4975650;28;19906;-62
2024/03/17 05:56:43;;;;;;;;;;;;;;;;;;4975675;28;19992;-62
2024/03/17 05:59:10;;;;;;;;;;;;;;;;;;4997890;28;19906;-61
2024/03/17 06:01:36;;;;;;;;;;;;;;;;;;4994838;28;20339;-62
2024/03/17 06:04:04;;;;;;;;;;;;;;;;;;4994834;28;19909;-61
2024/03/17 06:06:30;;;;;;;;;;;;;;;;;;4977113;28;20004;-62
2024/03/17 06:08:56;;;;;;;;;;;;;;;;;;4994866;28;20280;-62
2024/03/17 06:11:22;;;;;;;;;;;;;;;;;;4994792;28;20395;-61
2024/03/17 06:13:48;;;;;;;;;;;;;;;;;;4994675;28;19959;-61
2024/03/17 06:16:14;;;;;;;;;;;;;;;;;;4992784;28;19941;-62
2024/03/17 06:18:40;;;;;;;;;;;;;;;;;;4993076;28;19910;-62
2024/03/17 06:21:09;;;;;;;;;;;;;;;;;;4991522;28;20000;-62
2024/03/17 06:23:35;;;;;;;;;;;;;;;;;;4984873;28;19944;-62
2024/03/17 06:26:02;;;;;;;;;;;;;;;;;;4994328;28;19909;-62
2024/03/17 06:28:29;;;;;;;;;;;;;;;;;;4977709;28;19917;-61
2024/03/17 06:30:56;;;;;;;;;;;;;;;;;;4989932;28;19910;-61
2024/03/17 06:33:22;;;;;;;;;;;;;;;;;;4976103;28;20312;-61
2024/03/17 06:35:49;;;;;;;;;;;;;;;;;;4985387;28;20328;-62
2024/03/17 06:38:15;;;;;;;;;;;;;;;;;;4979250;28;20693;-62
2024/03/17 06:40:41;;;;;;;;;;;;;;;;;;4994028;28;20004;-62
2024/03/17 06:43:07;;;;;;;;;;;;;;;;;;4977487;28;20010;-61
2024/03/17 06:45:33;;;;;;;;;;;;;;;;;;4996032;28;19917;-62
2024/03/17 06:48:00;;;;;;;;;;;;;;;;;;4993825;28;19949;-61
2024/03/17 06:50:26;;;;;;;;;;;;;;;;;;4993372;28;19909;-61
2024/03/17 06:52:52;;;;;;;;;;;;;;;;;;4986681;28;20446;-61
2024/03/17 06:55:18;;;;;;;;;;;;;;;;;;4976556;28;19988;-61
2024/03/17 06:57:44;;;;;;;;;;;;;;;;;;4992186;28;19996;-62
2024/03/17 07:00:13;;;;;;;;;;;;;;;;;;4975353;28;19910;-61
2024/03/17 07:02:40;;;;;;;;;;;;;;;;;;4990215;28;19917;-62
2024/03/17 07:05:06;;;;;;;;;;;;;;;;;;4984973;28;19996;-62
2024/03/17 07:07:32;;;;;;;;;;;;;;;;;;4988597;28;20277;-62
2024/03/17 07:09:58;;;;;;;;;;;;;;;;;;4986192;28;19965;-60
2024/03/17 07:12:24;;;;;;;;;;;;;;;;;;4985827;28;20428;-48
2024/03/17 07:14:51;;;;;;;;;;;;;;;;;;4988591;28;19916;-48
2024/03/17 07:17:18;;;;;;;;;;;;;;;;;;4986907;28;19913;-52
2024/03/17 07:19:44;;;;;;;;;;;;;;;;;;4988514;28;20284;-55
2024/03/17 07:22:10;;;;;;;;;;;;;;;;;;4976955;28;19936;-57
2024/03/17 07:24:36;;;;;;;;;;;;;;;;;;4992372;28;19996;-54
2024/03/17 07:27:03;;;;;;;;;;;;;;;;;;4990943;28;19961;-56
2024/03/17 07:29:29;;;;;;;;;;;;;;;;;;4991545;28;20284;-53
2024/03/17 07:31:56;;;;;;;;;;;;;;;;;;4991945;28;19910;-54
2024/03/17 07:34:22;;;;;;;;;;;;;;;;;;4992146;28;20407;-63
2024/03/17 07:36:48;;;;;;;;;;;;;;;;;;4990204;28;19914;-63
2024/03/17 07:39:14;;;;;;;;;;;;;;;;;;4990937;28;20378;-63
2024/03/17 07:41:40;;;;;;;;;;;;;;;;;;4988185;28;19917;-63
2024/03/17 07:44:07;;;;;;;;;;;;;;;;;;4990437;28;19960;-62
2024/03/17 07:46:33;;;;;;;;;;;;;;;;;;4990189;28;19909;-63
2024/03/17 07:48:59;;;;;;;;;;;;;;;;;;4992076;28;20352;-62
2024/03/17 07:51:25;;;;;;;;;;;;;;;;;;4991650;28;19910;-61
2024/03/17 07:53:51;;;;;;;;;;;;;;;;;;4992012;28;19910;-62
2024/03/17 07:56:18;;;;;;;;;;;;;;;;;;4989435;28;19910;-63
2024/03/17 07:58:44;;;;;;;;;;;;;;;;;;4991540;28;19914;-62
2024/03/17 08:01:10;;;;;;;;;;;;;;;;;;4991465;28;19952;-62
2024/03/17 08:03:37;;;;;;;;;;;;;;;;;;4991490;28;20356;-62
2024/03/17 08:06:03;;;;;;;;;;;;;;;;;;4990777;28;19918;-62
2024/03/17 08:08:29;;;;;;;;;;;;;;;;;;4990563;28;19949;-63
2024/03/17 08:10:55;;;;;;;;;;;;;;;;;;4973967;28;19910;-63
2024/03/17 08:13:22;;;;;;;;;;;;;;;;;;4991996;28;20391;-63
2024/03/17 08:15:48;;;;;;;;;;;;;;;;;;4991365;28;19910;-63
2024/03/17 08:18:15;;;;;;;;;;;;;;;;;;4991728;28;19937;-57
2024/03/17 08:20:42;;;;;;;;;;;;;;;;;;4976001;28;20304;-62
2024/03/17 08:23:08;;;;;;;;;;;;;;;;;;4991596;28;19918;-62
2024/03/17 08:25:34;;;;;;;;;;;;;;;;;;4991264;28;19910;-62
2024/03/17 08:28:00;;;;;;;;;;;;;;;;;;4988591;28;19960;-62
2024/03/17 08:30:27;;;;;;;;;;;;;;;;;;4990494;28;19910;-62
2024/03/17 08:32:53;;;;;;;;;;;;;;;;;;4991399;28;19917;-60
2024/03/17 08:35:19;;;;;;;;;;;;;;;;;;4990289;28;20567;-59
2024/03/17 08:37:45;;;;;;;;;;;;;;;;;;4991039;28;19941;-62
2024/03/17 08:40:12;;;;;;;;;;;;;;;;;;4991697;28;19917;-56
2024/03/17 08:42:39;;;;;;;;;;;;;;;;;;4991181;28;21247;-62
2024/03/17 08:45:05;;;;;;;;;;;;;;;;;;4991643;28;20296;-60
2024/03/17 08:47:31;;;;;;;;;;;;;;;;;;4988388;28;19922;-61
2024/03/17 08:49:58;;;;;;;;;;;;;;;;;;4991342;28;21152;-62
2024/03/17 08:52:24;;;;;;;;;;;;;;;;;;4991048;28;19916;-62
2024/03/17 08:54:53;;;;;;;;;;;;;;;;;;4990179;28;20348;-61
2024/03/17 08:57:19;;;;;;;;;;;;;;;;;;4990603;28;19937;-61
2024/03/17 08:59:45;;;;;;;;;;;;;;;;;;4990048;28;20000;-61
2024/03/17 09:02:11;;;;;;;;;;;;;;;;;;4989605;28;19910;-61
2024/03/17 09:04:37;;;;;;;;;;;;;;;;;;4991326;28;19949;-62
2024/03/17 09:07:03;;;;;;;;;;;;;;;;;;4993263;28;19913;-63
2024/03/17 09:09:30;;;;;;;;;;;;;;;;;;4993657;28;19909;-60
2024/03/17 09:11:56;;;;;;;;;;;;;;;;;;4994699;28;19910;-61
2024/03/17 09:14:22;;;;;;;;;;;;;;;;;;4992668;28;19914;-60
2024/03/17 09:16:48;;;;;;;;;;;;;;;;;;4991760;28;19910;-61
2024/03/17 09:19:14;;;;;;;;;;;;;;;;;;4995217;28;19932;-61
2024/03/17 09:21:40;;;;;;;;;;;;;;;;;;4995132;28;19952;-63
2024/03/17 09:24:09;;;;;;;;;;;;;;;;;;4995641;28;19996;-61
2024/03/17 09:26:35;;;;;;;;;;;;;;;;;;4994835;28;20376;-62
2024/03/17 09:29:01;;;;;;;;;;;;;;;;;;4995437;28;19914;-61
2024/03/17 09:31:27;;;;;;;;;;;;;;;;;;4995113;28;19909;-62
2024/03/17 09:33:54;;;;;;;;;;;;;;;;;;4995407;28;19952;-62
2024/03/17 09:36:20;;;;;;;;;;;;;;;;;;4994598;28;19996;-62
2024/03/17 09:38:46;;;;;;;;;;;;;;;;;;4995324;28;19936;-62
2024/03/17 09:41:12;;;;;;;;;;;;;;;;;;4994857;28;19920;-62
2024/03/17 09:43:38;;;;;;;;;;;;;;;;;;4995150;28;20395;-62
2024/03/17 09:46:05;;;;;;;;;;;;;;;;;;4994475;28;20008;-62
2024/03/17 09:48:31;;;;;;;;;;;;;;;;;;4995029;28;19920;-62
2024/03/17 10:31:27;;;;;;;;;;;;;;;;;;5747413;23;20036;-49
2024/03/17 10:33:53;;;;;;;;;;;;;;;;;;5008683;28;19988;-58
2024/03/17 10:36:20;;;;;;;;;;;;;;;;;;5004657;28;19913;-55
2024/03/17 10:38:46;;;;;;;;;;;;;;;;;;4994110;28;19910;-55
2024/03/17 10:41:12;;;;;;;;;;;;;;;;;;4993992;28;19929;-57
2024/03/17 10:43:40;;;;;;;;;;;;;;;;;;4994198;28;19916;-57
2024/03/17 10:46:06;;;;;;;;;;;;;;;;;;5015172;23;20290;-64
2024/03/17 10:48:32;;;;;;;;;;;;;;;;;;5002579;28;19992;-64
2024/03/17 10:50:59;;;;;;;;;;;;;;;;;;4994032;28;20004;-63
2024/03/17 10:53:27;;;;;;;;;;;;;;;;;;4993898;28;19905;-64
2024/03/17 10:55:53;;;;;;;;;;;;;;;;;;4993776;28;19910;-64
2024/03/17 10:58:21;;;;;;;;;;;;;;;;;;4993843;28;19985;-64
2024/03/17 11:00:47;;;;;;;;;;;;;;;;;;4993768;28;20398;-64
2024/03/17 11:03:13;;;;;;;;;;;;;;;;;;4995260;28;19968;-64
2024/03/17 11:05:39;;;;;;;;;;;;;;;;;;5013227;28;20004;-64
2024/03/17 11:08:05;;;;;;;;;;;;;;;;;;5013176;28;20398;-63
2024/03/17 11:10:31;;;;;;;;;;;;;;;;;;5013141;28;19967;-66
2024/03/17 11:12:58;;;;;;;;;;;;;;;;;;5012722;28;19909;-65
2024/03/17 11:15:33;;;;;;;;;;;;;;;;;;5012930;28;19992;-58
2024/03/17 11:17:59;;;;;;;;;;;;;;;;;;5011951;28;19952;-64
2024/03/17 11:20:25;;;;;;;;;;;;;;;;;;5013114;28;19910;-64
2024/03/17 11:22:52;;;;;;;;;;;;;;;;;;4995324;28;20022;-64
2024/03/17 11:25:18;;;;;;;;;;;;;;;;;;5012731;28;19913;-64
2024/03/17 11:27:44;;;;;;;;;;;;;;;;;;5012809;28;19913;-64
2024/03/17 11:30:10;;;;;;;;;;;;;;;;;;5012057;28;19916;-64
2024/03/17 11:32:37;;;;;;;;;;;;;;;;;;5012627;28;20383;-62
2024/03/17 11:35:03;;;;;;;;;;;;;;;;;;5012595;28;19909;-64
2024/03/17 11:37:29;;;;;;;;;;;;;;;;;;5012544;28;20376;-64
2024/03/17 11:39:58;;;;;;;;;;;;;;;;;;5012726;28;19957;-64
2024/03/17 11:42:24;;;;;;;;;;;;;;;;;;5010756;28;19909;-64
2024/03/17 11:44:50;;;;;;;;;;;;;;;;;;5010714;28;19913;-64
2024/03/17 11:47:16;;;;;;;;;;;;;;;;;;4994210;28;19969;-64
2024/03/17 11:49:45;;;;;;;;;;;;;;;;;;4998036;28;19910;-64
2024/03/17 11:52:12;;;;;;;;;;;;;;;;;;4995228;28;20351;-64
2024/03/17 11:54:39;;;;;;;;;;;;;;;;;;4991088;28;19917;-64
2024/03/17 11:57:08;;;;;;;;;;;;;;;;;;4993312;28;20008;-63
2024/03/17 11:59:35;;;;;;;;;;;;;;;;;;4991068;28;19916;-64
2024/03/17 12:02:02;;;;;;;;;;;;;;;;;;4993498;28;19917;-61
2024/03/17 12:04:28;;;;;;;;;;;;;;;;;;4999481;28;20388;-63
2024/03/17 12:06:54;;;;;;;;;;;;;;;;;;4993283;28;20004;-63
2024/03/17 12:09:20;;;;;;;;;;;;;;;;;;4991081;28;20434;-63
2024/03/17 12:11:46;;;;;;;;;;;;;;;;;;4991373;28;20015;-63
2024/03/17 12:14:12;;;;;;;;;;;;;;;;;;4995728;28;20395;-63
2024/03/17 12:16:40;;;;;;;;;;;;;;;;;;5003158;28;19917;-64
2024/03/17 12:19:06;;;;;;;;;;;;;;;;;;4994971;28;20265;-63
2024/03/17 12:21:32;;;;;;;;;;;;;;;;;;4992815;28;19914;-64
2024/03/17 12:23:58;;;;;;;;;;;;;;;;;;5008388;28;19916;-64
2024/03/17 12:26:24;;;;;;;;;;;;;;;;;;4998730;28;20288;-64
2024/03/17 12:28:50;;;;;;;;;;;;;;;;;;4990919;28;19940;-64
2024/03/17 12:31:16;;;;;;;;;;;;;;;;;;5002963;28;20390;-61
2024/03/17 12:33:44;;;;;;;;;;;;;;;;;;5000347;28;19909;-63
2024/03/17 12:36:12;;;;;;;;;;;;;;;;;;4993625;28;19936;-62
2024/03/17 12:38:38;;;;;;;;;;;;;;;;;;4990093;28;19916;-64
2024/03/17 12:41:08;;;;;;;;;;;;;;;;;;4992003;28;20005;-64
2024/03/17 12:43:34;;;;;;;;;;;;;;;;;;4994849;28;20008;-59
2024/03/17 12:46:01;;;;;;;;;;;;;;;;;;5003121;28;19921;-55
2024/03/17 12:48:27;;;;;;;;;;;;;;;;;;5013934;28;19949;-61
2024/03/17 12:50:53;;;;;;;;;;;;;;;;;;5013678;28;19995;-62
2024/03/17 12:53:21;;;;;;;;;;;;;;;;;;5014457;28;20306;-59
2024/03/17 13:01:16;;;;;;;;;;;;;;;;;;5003040;28;20012;-61
2024/03/17 13:03:44;;;;;;;;;;;;;;;;;;4994596;28;19957;-59
2024/03/17 13:06:10;;;;;;;;;;;;;;;;;;5003404;28;20380;-61
2024/03/17 13:08:36;;;;;;;;;;;;;;;;;;5011848;28;19913;-60
2024/03/17 13:11:05;;;;;;;;;;;;;;;;;;5010587;28;19917;-61
2024/03/17 13:13:31;;;;;;;;;;;;;;;;;;4995535;28;19917;-62
2024/03/17 13:15:58;;;;;;;;;;;;;;;;;;5006425;28;19967;-62
2024/03/17 13:18:24;;;;;;;;;;;;;;;;;;4994442;28;19910;-61
2024/03/17 13:20:53;;;;;;;;;;;;;;;;;;4993100;28;19913;-62
2024/03/17 13:23:21;;;;;;;;;;;;;;;;;;4994304;28;19910;-62
2024/03/17 13:25:47;;;;;;;;;;;;;;;;;;5013120;28;19917;-62
2024/03/17 13:28:14;;;;;;;;;;;;;;;;;;5013418;28;19917;-62
2024/03/17 13:30:41;;;;;;;;;;;;;;;;;;4997048;28;20372;-61
2024/03/17 13:33:11;;;;;;;;;;;;;;;;;;5008614;28;19909;-61
2024/03/17 13:35:39;;;;;;;;;;;;;;;;;;4993616;28;19925;-60
2024/03/17 13:38:06;;;;;;;;;;;;;;;;;;5001219;28;19909;-61
2024/03/17 13:40:32;;;;;;;;;;;;;;;;;;5012026;28;19924;-61
2024/03/17 13:42:59;;;;;;;;;;;;;;;;;;5013178;28;19910;-61
2024/03/17 13:45:25;;;;;;;;;;;;;;;;;;5012825;28;19920;-61
2024/03/17 13:47:51;;;;;;;;;;;;;;;;;;5011954;28;20369;-59
2024/03/17 13:50:18;;;;;;;;;;;;;;;;;;5005391;28;20012;-59
2024/03/17 13:52:44;;;;;;;;;;;;;;;;;;4992388;28;19920;-61
2024/03/17 13:55:10;;;;;;;;;;;;;;;;;;4993215;28;19921;-61
2024/03/17 13:57:36;;;;;;;;;;;;;;;;;;5010394;28;20318;-62
2024/03/17 14:00:03;;;;;;;;;;;;;;;;;;5010181;28;19909;-57
2024/03/17 14:02:38;;;;;;;;;;;;;;;;;;5007806;28;19916;-60
2024/03/17 14:05:07;;;;;;;;;;;;;;;;;;4998442;28;19945;-59
2024/03/17 14:07:34;;;;;;;;;;;;;;;;;;5010446;28;19913;-61
2024/03/17 14:10:00;;;;;;;;;;;;;;;;;;5007601;28;20276;-60
2024/03/17 14:12:26;;;;;;;;;;;;;;;;;;5008435;28;19915;-61
2024/03/17 14:14:52;;;;;;;;;;;;;;;;;;4999645;28;19956;-61
2024/03/17 14:17:18;;;;;;;;;;;;;;;;;;5005882;28;19909;-61
2024/03/17 14:19:45;;;;;;;;;;;;;;;;;;4996254;28;19992;-62
2024/03/17 14:22:11;;;;;;;;;;;;;;;;;;5010199;28;20380;-61
2024/03/17 14:24:37;;;;;;;;;;;;;;;;;;5009147;28;20376;-63
2024/03/17 14:27:03;;;;;;;;;;;;;;;;;;5013025;28;19916;-62
2024/03/17 14:29:30;;;;;;;;;;;;;;;;;;5011722;28;19909;-61
2024/03/17 14:31:56;;;;;;;;;;;;;;;;;;5012909;28;19909;-59
2024/03/17 14:34:23;;;;;;;;;;;;;;;;;;5011730;28;20272;-62
2024/03/17 14:36:49;;;;;;;;;;;;;;;;;;5012593;28;20367;-62
2024/03/17 14:39:15;;;;;;;;;;;;;;;;;;5012730;28;19917;-62
2024/03/17 14:41:41;;;;;;;;;;;;;;;;;;5010603;28;19909;-62
2024/03/17 14:44:08;;;;;;;;;;;;;;;;;;5012960;28;19915;-62
2024/03/17 14:46:34;;;;;;;;;;;;;;;;;;5010580;28;19913;-61
2024/03/17 14:49:01;;;;;;;;;;;;;;;;;;5013641;28;19913;-62
2024/03/17 14:51:27;;;;;;;;;;;;;;;;;;5006458;28;20001;-62
2024/03/17 14:53:53;;;;;;;;;;;;;;;;;;4993943;28;19917;-62
2024/03/17 14:56:19;;;;;;;;;;;;;;;;;;4993347;28;19945;-52
2024/03/17 14:58:50;;;;;;;;;;;;;;;;;;4993660;28;20000;-59
2024/03/17 15:01:16;;;;;;;;;;;;;;;;;;4999680;28;19914;-58
2024/03/17 15:03:43;;;;;;;;;;;;;;;;;;4997632;28;19920;-59
2024/03/17 15:06:09;;;;;;;;;;;;;;;;;;4991897;28;20060;-61
2024/03/17 15:08:35;;;;;;;;;;;;;;;;;;5005607;28;19924;-62
2024/03/17 15:11:01;;;;;;;;;;;;;;;;;;5010930;28;20004;-62
2024/03/17 15:13:27;;;;;;;;;;;;;;;;;;5012103;28;19910;-61
2024/03/17 15:15:54;;;;;;;;;;;;;;;;;;5011884;28;20280;-61
2024/03/17 15:18:21;;;;;;;;;;;;;;;;;;5007484;28;19919;-62
2024/03/17 15:20:47;;;;;;;;;;;;;;;;;;5010289;28;19909;-61
2024/03/17 15:23:15;;;;;;;;;;;;;;;;;;4996705;28;19916;-62
2024/03/17 15:25:41;;;;;;;;;;;;;;;;;;5008048;28;20368;-62
2024/03/17 15:28:07;;;;;;;;;;;;;;;;;;5001057;28;19913;-62
2024/03/17 15:30:33;;;;;;;;;;;;;;;;;;4995915;28;19963;-57
2024/03/17 15:32:59;;;;;;;;;;;;;;;;;;4992075;28;19916;-58
2024/03/17 15:35:29;;;;;;;;;;;;;;;;;;5005610;28;19909;-50
2024/03/17 15:37:56;;;;;;;;;;;;;;;;;;5010560;28;19956;-53
2024/03/17 15:40:23;;;;;;;;;;;;;;;;;;5011293;28;19920;-52
2024/03/17 15:42:49;;;;;;;;;;;;;;;;;;5011852;28;19917;-59
2024/03/17 15:45:16;;;;;;;;;;;;;;;;;;5011380;28;19910;-59
2024/03/17 15:47:42;;;;;;;;;;;;;;;;;;5011627;28;20323;-60
2024/03/17 15:50:08;;;;;;;;;;;;;;;;;;5005112;28;19916;-62
2024/03/17 15:52:35;;;;;;;;;;;;;;;;;;5004526;28;20069;-61
2024/03/17 15:55:02;;;;;;;;;;;;;;;;;;5000038;28;19920;-61
2024/03/17 15:57:28;;;;;;;;;;;;;;;;;;5005151;28;19916;-61
2024/03/17 15:59:54;;;;;;;;;;;;;;;;;;5008357;28;20335;-60
2024/03/17 16:02:21;;;;;;;;;;;;;;;;;;5010858;28;19910;-61
2024/03/17 16:04:47;;;;;;;;;;;;;;;;;;5008289;28;19910;-58
2024/03/17 16:07:13;;;;;;;;;;;;;;;;;;5009508;28;20273;-60
2024/03/17 16:09:39;;;;;;;;;;;;;;;;;;5008796;28;20000;-61
2024/03/17 16:12:05;;;;;;;;;;;;;;;;;;5008394;28;20106;-60
2024/03/17 16:14:31;;;;;;;;;;;;;;;;;;5009452;28;19909;-60
2024/03/17 16:16:57;;;;;;;;;;;;;;;;;;5000452;28;19972;-61
2024/03/17 16:19:24;;;;;;;;;;;;;;;;;;5002257;28;19944;-61
2024/03/17 16:31:24;;;;;;;;;;;;;;;;;;5037280;28;19964;-61
2024/03/17 16:33:53;;;;;;;;;;;;;;;;;;5020346;28;19991;-62
2024/03/17 16:36:22;;;;;;;;;;;;;;;;;;5038215;28;20367;-62
2024/03/17 16:38:49;;;;;;;;;;;;;;;;;;5020220;28;20351;-61
2024/03/17 16:41:16;;;;;;;;;;;;;;;;;;5038345;28;19955;-62
2024/03/17 16:43:42;;;;;;;;;;;;;;;;;;5020381;28;19909;-61
2024/03/17 16:46:09;;;;;;;;;;;;;;;;;;5061437;23;19921;-55
2024/03/17 16:48:35;;;;;;;;;;;;;;;;;;5020413;28;19917;-56
2024/03/17 16:51:02;;;;;;;;;;;;;;;;;;5004042;28;19952;-56
2024/03/17 16:53:29;;;;;;;;;;;;;;;;;;5031996;28;19905;-56
2024/03/17 16:55:55;;;;;;;;;;;;;;;;;;5016909;28;19931;-56
2024/03/17 16:58:21;;;;;;;;;;;;;;;;;;5016949;28;19913;-55
2024/03/17 17:00:48;;;;;;;;;;;;;;;;;;5016726;28;19909;-54
2024/03/17 17:03:14;;;;;;;;;;;;;;;;;;5016642;28;19920;-56
2024/03/17 17:05:40;;;;;;;;;;;;;;;;;;5015097;28;20298;-55
2024/03/17 17:08:06;;;;;;;;;;;;;;;;;;5016506;28;19917;-53
2024/03/17 17:10:32;;;;;;;;;;;;;;;;;;4999021;28;19909;-56
2024/03/17 17:12:59;;;;;;;;;;;;;;;;;;5016659;28;19913;-56
2024/03/17 17:15:25;;;;;;;;;;;;;;;;;;5016386;28;19967;-57
2024/03/17 17:17:54;;;;;;;;;;;;;;;;;;5016635;28;19916;-56
2024/03/17 17:20:21;;;;;;;;;;;;;;;;;;5016530;28;19913;-56
2024/03/17 17:22:48;;;;;;;;;;;;;;;;;;5016518;28;20295;-56
2024/03/17 17:25:14;;;;;;;;;;;;;;;;;;5016315;28;20375;-54
2024/03/17 17:27:41;;;;;;;;;;;;;;;;;;5015293;28;20447;-56
2024/03/17 17:30:07;;;;;;;;;;;;;;;;;;5013456;28;19912;-56
2024/03/17 17:32:36;;;;;;;;;;;;;;;;;;5012086;28;19913;-55
2024/03/17 17:35:07;;;;;;;;;;;;;;;;;;5013311;28;19912;-56
2024/03/17 17:37:34;;;;;;;;;;;;;;;;;;4995658;28;19913;-55